Terminal Aerodrome Forecast
Issued by NWS

Home | Current Version | Previous Version | Text Only | Print | Product List | Glossary On
Versions: 1 2 3 4 5 6 7 8 9 10 11 12 13 14
000
FTUS46 KSGX 252338
TAFONT
TAF
KONT 252338Z 2600/2706 25011G18KT P6SM SCT035 BKN060
     FM260600 25008KT P6SM SCT015 BKN040
     FM260900 VRB05KT P6SM BKN020
     FM261800 25011G18KT P6SM SCT035
     FM270500 25007KT P6SM SCT020 SCT035=

USA.gov is the U.S. government's official web portal to all federal, state and local government web resources and services.